Terminal Aerodrome Forecast
Issued by NWS Boise, ID

Home | Current Version | Previous Version | Text Only | Print | Product List | Glossary On
Versions: 1 2 3 4 5 6 7 8 9 10 11 12 13 14 15 16 17 18 19 20 21 22 23 24 25 26 27 28 29 30 31 32 33 34 35 36 37 38 39 40
965
FTUS45 KBOI 100705 AAA
TAFBNO
TAF AMD
KBNO 100705Z 1007/1106 VRB03KT 1/4SM FZFG VV001
     FM101800 VRB03KT P6SM SKC
     FM110400 VRB03KT 1SM BR BKN002=

USA.gov is the U.S. government's official web portal to all federal, state and local government web resources and services.